createdAt,value
2023-07-23T00:01:59.335Z,4.40
2023-07-23T00:07:01.458Z,3.17
2023-07-23T00:12:04.079Z,3.28
2023-07-23T00:17:05.912Z,4.38
2023-07-23T00:22:08.003Z,2.83
2023-07-23T00:27:11.365Z,3.50
2023-07-23T00:32:13.175Z,2.50
2023-07-23T00:37:16.373Z,3.85
2023-07-23T00:42:18.426Z,3.70
2023-07-23T00:47:20.895Z,3.08
2023-07-23T00:52:23.027Z,4.03
2023-07-23T00:57:25.036Z,3.08
2023-07-23T01:02:28.225Z,3.08
2023-07-23T01:07:32.639Z,2.90
2023-07-23T01:12:35.149Z,3.70
2023-07-23T01:17:38.213Z,2.47
2023-07-23T01:22:39.996Z,2.90
2023-07-23T01:27:42.053Z,3.38
2023-07-23T01:32:46.031Z,3.25
2023-07-23T01:37:49.171Z,3.30
2023-07-23T01:42:51.506Z,3.92
2023-07-23T01:47:53.367Z,3.20
2023-07-23T01:52:58.674Z,3.75
2023-07-23T01:58:02.718Z,3.72
2023-07-23T02:03:04.677Z,4.00
2023-07-23T02:08:08.290Z,3.38
2023-07-23T02:13:10.436Z,4.00
2023-07-23T02:18:12.494Z,2.70
2023-07-23T02:23:18.877Z,3.83
2023-07-23T02:28:20.893Z,3.75
2023-07-23T02:33:22.724Z,5.78
2023-07-23T02:38:26.187Z,4.35
2023-07-23T02:43:28.069Z,3.05
2023-07-23T02:48:30.198Z,4.18
2023-07-23T02:53:31.933Z,4.50
2023-07-23T02:58:34.577Z,3.50
2023-07-23T03:03:39.899Z,3.22
2023-07-23T03:08:41.984Z,2.95
2023-07-23T03:13:44.123Z,2.85
2023-07-23T03:18:47.023Z,2.75
2023-07-23T03:23:48.910Z,2.78
2023-07-23T03:28:51.769Z,2.10
2023-07-23T03:33:53.739Z,2.55
2023-07-23T03:38:55.903Z,3.00
2023-07-23T03:43:57.638Z,2.88
2023-07-23T03:48:59.575Z,3.65
2023-07-23T03:54:01.423Z,3.50
2023-07-23T03:59:03.515Z,3.53
2023-07-23T04:04:06.336Z,2.85
2023-07-23T04:09:09.810Z,3.33
2023-07-23T04:14:11.913Z,4.55
2023-07-23T04:19:14.130Z,3.30
2023-07-23T04:24:16.196Z,4.32
2023-07-23T04:29:18.332Z,4.45
2023-07-23T04:34:20.488Z,4.63
2023-07-23T04:39:22.762Z,3.80
2023-07-23T04:44:25.153Z,4.10
2023-07-23T04:49:28.308Z,4.90
2023-07-23T04:54:30.101Z,4.75
2023-07-23T04:59:32.150Z,4.22
2023-07-23T05:04:35.423Z,8.07
2023-07-23T05:09:37.344Z,7.07
2023-07-23T05:14:39.421Z,7.72
2023-07-23T05:19:41.541Z,7.25
2023-07-23T05:24:43.809Z,5.95
2023-07-23T05:29:45.759Z,5.82
2023-07-23T05:34:47.808Z,5.32
2023-07-23T05:39:50.510Z,4.32
2023-07-23T05:44:52.391Z,4.30
2023-07-23T05:49:54.497Z,4.25
2023-07-23T05:54:56.418Z,3.85
2023-07-23T05:59:58.521Z,4.30
2023-07-23T06:05:00.505Z,4.15
2023-07-23T06:10:02.653Z,4.60
2023-07-23T06:15:05.208Z,5.85
2023-07-23T06:20:09.145Z,4.20
2023-07-23T06:25:11.917Z,3.95
2023-07-23T06:30:16.478Z,4.32
2023-07-23T06:35:20.428Z,3.83
2023-07-23T06:40:24.212Z,2.63
2023-07-23T06:45:28.636Z,2.33
2023-07-23T06:50:32.070Z,2.33
2023-07-23T06:56:05.606Z,1.98
2023-07-23T07:01:09.662Z,2.20
2023-07-23T07:06:11.518Z,2.00
2023-07-23T07:11:16.875Z,1.70
2023-07-23T07:16:22.153Z,2.10
2023-07-23T07:21:25.092Z,2.00
2023-07-23T07:26:27.179Z,2.13
2023-07-23T07:31:35.003Z,2.25
2023-07-23T07:36:37.930Z,1.98
2023-07-23T07:41:39.798Z,1.85
2023-07-23T07:46:42.297Z,2.40
2023-07-23T07:51:46.500Z,1.90
2023-07-23T07:56:54.797Z,2.00
2023-07-23T08:01:58.410Z,1.70
2023-07-23T08:07:01.029Z,1.95
2023-07-23T08:12:04.007Z,1.80
2023-07-23T08:17:06.349Z,1.65
2023-07-23T08:22:10.923Z,1.52
2023-07-23T08:27:16.961Z,1.45
2023-07-23T08:32:22.256Z,1.48
2023-07-23T08:37:24.544Z,1.65
2023-07-23T08:43:02.919Z,1.67
2023-07-23T08:48:18.718Z,1.38
2023-07-23T08:53:23.114Z,1.60
2023-07-23T08:58:25.187Z,1.40
2023-07-23T09:03:28.524Z,1.52
2023-07-23T09:08:30.394Z,1.98
2023-07-23T09:13:36.678Z,1.70
2023-07-23T09:18:43.856Z,1.60
2023-07-23T09:23:52.116Z,1.75
2023-07-23T09:28:57.136Z,1.55
2023-07-23T09:34:03.020Z,1.75
2023-07-23T09:39:08.374Z,1.60
2023-07-23T09:44:13.197Z,2.08
2023-07-23T09:49:15.564Z,1.38
2023-07-23T09:54:18.535Z,2.05
2023-07-23T09:59:22.172Z,1.10
2023-07-23T10:04:24.802Z,1.45
2023-07-23T10:09:28.225Z,1.48
2023-07-23T10:14:30.288Z,1.75
2023-07-23T10:19:32.796Z,1.63
2023-07-23T10:24:40.075Z,1.30
2023-07-23T10:29:42.760Z,1.52
2023-07-23T10:34:46.028Z,1.40
2023-07-23T10:39:50.398Z,1.88
2023-07-23T10:45:28.174Z,1.83
2023-07-23T10:50:32.029Z,1.80
2023-07-23T10:55:52.470Z,1.48
2023-07-23T11:01:01.201Z,1.60
2023-07-23T11:06:04.228Z,1.80
2023-07-23T11:11:11.328Z,1.50
2023-07-23T11:16:13.397Z,1.55
2023-07-23T11:21:17.333Z,1.50
2023-07-23T11:26:19.400Z,1.45
2023-07-23T11:31:22.814Z,1.60
2023-07-23T11:36:26.031Z,1.50
2023-07-23T11:41:48.629Z,1.25
2023-07-23T11:46:50.547Z,1.80
2023-07-23T11:51:52.451Z,1.42
2023-07-23T11:56:55.870Z,1.83
2023-07-23T12:02:01.741Z,1.80
2023-07-23T12:07:07.301Z,1.80
2023-07-23T12:12:14.196Z,1.60
2023-07-23T12:17:16.577Z,1.95
2023-07-23T12:22:19.079Z,2.08
2023-07-23T12:27:20.879Z,2.15
2023-07-23T12:32:23.359Z,1.65
2023-07-23T12:37:26.534Z,1.58
2023-07-23T12:42:29.159Z,1.83
2023-07-23T12:47:33.467Z,1.70
2023-07-23T12:52:35.205Z,2.08
2023-07-23T12:57:39.704Z,2.10
2023-07-23T13:02:41.787Z,1.80
2023-07-23T13:07:44.350Z,1.88
2023-07-23T13:12:46.424Z,2.15
2023-07-23T13:17:49.407Z,1.90
2023-07-23T13:22:51.473Z,2.03
2023-07-23T13:27:53.361Z,2.20
2023-07-23T13:32:55.883Z,1.90
2023-07-23T13:37:59.627Z,1.90
2023-07-23T13:43:01.941Z,1.77
2023-07-23T13:48:04.315Z,1.90
2023-07-23T13:53:06.530Z,2.58
2023-07-23T13:58:08.413Z,2.30
2023-07-23T14:03:10.428Z,4.82
2023-07-23T14:08:12.328Z,3.25
2023-07-23T14:13:14.528Z,2.30
2023-07-23T14:18:16.965Z,3.08
2023-07-23T14:23:18.809Z,2.38
2023-07-23T14:28:20.604Z,2.80
2023-07-23T14:33:22.458Z,2.50
2023-07-23T14:38:24.648Z,2.55
2023-07-23T14:43:28.062Z,3.08
2023-07-23T14:48:31.730Z,2.60
2023-07-23T14:53:33.878Z,2.72
2023-07-23T14:58:35.635Z,2.67
2023-07-23T15:03:37.609Z,2.45
2023-07-23T15:08:41.636Z,2.53
2023-07-23T15:13:43.749Z,2.38
2023-07-23T15:18:45.841Z,2.53
2023-07-23T15:23:48.124Z,2.50
2023-07-23T15:28:52.940Z,2.55
2023-07-23T15:33:55.268Z,2.80
2023-07-23T15:38:59.787Z,2.35
2023-07-23T15:44:01.966Z,2.70
2023-07-23T15:49:03.824Z,3.03
2023-07-23T15:54:08.493Z,2.28
2023-07-23T15:59:10.635Z,2.50
2023-07-23T16:04:12.721Z,2.55
2023-07-23T16:09:14.620Z,2.65
2023-07-23T16:14:16.769Z,2.40
2023-07-23T16:19:18.543Z,2.42
2023-07-23T16:24:20.659Z,2.90
2023-07-23T16:29:22.804Z,2.42
2023-07-23T16:34:24.873Z,3.30
2023-07-23T16:39:28.423Z,2.80
2023-07-23T16:44:30.947Z,3.75
2023-07-23T16:49:33.057Z,2.90
2023-07-23T16:54:35.336Z,3.05
2023-07-23T16:59:37.546Z,3.17
2023-07-23T17:04:41.184Z,3.03
2023-07-23T17:09:43.726Z,3.90
2023-07-23T17:14:45.748Z,3.40
2023-07-23T17:19:47.911Z,3.67
2023-07-23T17:24:51.188Z,4.93
2023-07-23T17:29:53.454Z,2.95
2023-07-23T17:34:56.945Z,3.38
2023-07-23T17:40:00.185Z,3.78
2023-07-23T17:45:03.857Z,2.97
2023-07-23T17:50:14.297Z,3.50
2023-07-23T17:55:16.351Z,3.65
2023-07-23T18:00:19.054Z,4.05
2023-07-23T18:05:24.644Z,4.03
2023-07-23T18:10:26.857Z,3.90
2023-07-23T18:15:28.745Z,3.83
2023-07-23T18:20:30.853Z,3.67
2023-07-23T18:25:32.942Z,4.45
2023-07-23T18:30:35.047Z,3.80
2023-07-23T18:35:40.427Z,3.47
2023-07-23T18:40:42.552Z,3.58
2023-07-23T18:45:44.659Z,3.95
2023-07-23T18:50:46.909Z,4.68
2023-07-23T18:55:48.818Z,4.00
2023-07-23T19:00:51.476Z,4.10
2023-07-23T19:05:53.341Z,3.83
2023-07-23T19:10:55.539Z,3.78
2023-07-23T19:15:57.487Z,3.65
2023-07-23T19:21:02.073Z,4.55
2023-07-23T19:26:03.902Z,3.60
2023-07-23T19:31:08.858Z,5.20
2023-07-23T19:36:11.771Z,4.05
2023-07-23T19:41:13.724Z,4.20
2023-07-23T19:46:17.220Z,4.55
2023-07-23T19:51:19.353Z,4.30
2023-07-23T19:56:21.366Z,4.40
2023-07-23T20:01:24.773Z,4.70
2023-07-23T20:06:26.671Z,4.07
2023-07-23T20:11:29.342Z,4.50
2023-07-23T20:16:32.249Z,4.53
2023-07-23T20:21:43.893Z,4.15
2023-07-23T20:26:47.068Z,4.35
2023-07-23T20:31:50.229Z,4.45
2023-07-23T20:36:53.822Z,4.10
2023-07-23T20:41:56.171Z,4.53
2023-07-23T20:46:58.016Z,4.50
2023-07-23T20:51:59.816Z,4.78
2023-07-23T20:57:01.700Z,4.53
2023-07-23T21:02:03.674Z,4.15
2023-07-23T21:07:05.808Z,4.60
2023-07-23T21:12:07.898Z,4.65
2023-07-23T21:17:09.983Z,4.90
2023-07-23T21:22:12.473Z,4.68
2023-07-23T21:27:14.385Z,4.55
2023-07-23T21:32:16.239Z,4.93
2023-07-23T21:37:18.259Z,4.93
2023-07-23T21:42:20.431Z,5.88
2023-07-23T21:47:26.999Z,6.20
2023-07-23T21:52:30.174Z,5.80
2023-07-23T21:57:32.190Z,5.65
2023-07-23T22:02:34.214Z,5.85
2023-07-23T22:07:37.756Z,5.20
2023-07-23T22:12:40.141Z,5.13
2023-07-23T22:17:41.910Z,4.53
2023-07-23T22:22:44.072Z,5.25
2023-07-23T22:27:47.517Z,4.88
2023-07-23T22:32:49.337Z,4.88
2023-07-23T22:37:51.461Z,4.70
2023-07-23T22:43:02.865Z,5.00
2023-07-23T22:48:06.521Z,4.90
2023-07-23T22:53:10.786Z,4.68
2023-07-23T22:58:13.172Z,4.55
2023-07-23T23:03:15.283Z,5.10
2023-07-23T23:08:17.851Z,5.80
2023-07-23T23:13:19.627Z,6.72
2023-07-23T23:18:21.941Z,5.28
2023-07-23T23:23:24.016Z,5.50
2023-07-23T23:28:25.829Z,5.32
2023-07-23T23:33:27.592Z,5.65
2023-07-23T23:38:29.484Z,5.70
2023-07-23T23:43:31.310Z,5.18
2023-07-23T23:48:33.278Z,5.00
2023-07-23T23:53:35.899Z,7.20
2023-07-23T23:58:37.972Z,5.82
